Time;durP1;ratioP1;P1;durP2;ratioP2;P2;SDS_P1;SDS_P2;PMS_P1;PMS_P2;Temp;Humidity;BMP_temperature;BMP_pressure;BME280_temperature;BME280_humidity;BME280_pressure;Samples;Min_cycle;Max_cycle;Signal;HPM_P1;HPM_P2
2023/09/08 00:02:04;;;;;;;9.20;4.55;;;;;;;;;;5074563;28;20160;-69
2023/09/08 00:04:32;;;;;;;9.35;4.53;;;;;;;;;;5070323;28;20040;-70
2023/09/08 00:06:59;;;;;;;10.80;4.50;;;;;;;;;;5070703;28;20088;-69
2023/09/08 00:09:26;;;;;;;9.02;4.28;;;;;;;;;;5074537;28;20056;-69
2023/09/08 00:11:55;;;;;;;7.63;4.10;;;;;;;;;;5078898;28;20064;-70
2023/09/08 00:14:22;;;;;;;9.23;3.97;;;;;;;;;;5063494;28;20040;-69
2023/09/08 00:16:49;;;;;;;8.45;4.40;;;;;;;;;;5048625;28;20055;-69
2023/09/08 00:19:16;;;;;;;10.40;4.22;;;;;;;;;;5061513;28;20076;-68
2023/09/08 00:21:44;;;;;;;7.70;4.15;;;;;;;;;;5057346;28;20048;-69
2023/09/08 00:24:12;;;;;;;9.25;4.00;;;;;;;;;;5061163;28;20055;-69
2023/09/08 00:26:39;;;;;;;9.70;4.28;;;;;;;;;;5053201;28;20075;-69
2023/09/08 00:29:07;;;;;;;7.70;4.18;;;;;;;;;;5061180;28;20060;-69
2023/09/08 00:31:34;;;;;;;13.45;4.35;;;;;;;;;;5073661;28;20044;-69
2023/09/08 00:34:01;;;;;;;10.95;4.75;;;;;;;;;;5080624;28;20059;-69
2023/09/08 00:36:28;;;;;;;8.98;4.38;;;;;;;;;;5072214;28;20105;-69
2023/09/08 00:38:54;;;;;;;13.25;4.28;;;;;;;;;;5082730;28;20210;-69
2023/09/08 00:41:23;;;;;;;11.02;4.55;;;;;;;;;;5083562;28;20070;-69
2023/09/08 00:43:50;;;;;;;8.35;4.32;;;;;;;;;;5079525;28;20074;-69
2023/09/08 00:46:19;;;;;;;10.80;4.40;;;;;;;;;;5045119;28;20053;-69
2023/09/08 00:48:46;;;;;;;9.13;4.68;;;;;;;;;;5036721;28;20053;-69
2023/09/08 00:51:13;;;;;;;9.15;4.35;;;;;;;;;;5041121;28;20075;-69
2023/09/08 00:53:41;;;;;;;9.63;5.00;;;;;;;;;;5054329;28;20067;-68
2023/09/08 00:56:10;;;;;;;8.45;3.83;;;;;;;;;;5056534;28;20144;-68
2023/09/08 00:58:36;;;;;;;10.82;4.68;;;;;;;;;;5057108;28;20041;-69
2023/09/08 01:01:05;;;;;;;9.98;4.47;;;;;;;;;;5063584;28;20059;-68
2023/09/08 01:03:34;;;;;;;9.95;4.82;;;;;;;;;;5064773;28;20073;-69
2023/09/08 01:06:01;;;;;;;10.88;4.43;;;;;;;;;;5059855;28;20056;-69
2023/09/08 01:08:29;;;;;;;8.20;4.25;;;;;;;;;;5059332;28;20110;-71
2023/09/08 01:10:57;;;;;;;10.27;4.57;;;;;;;;;;5063798;28;20071;-69
2023/09/08 01:13:23;;;;;;;13.57;4.47;;;;;;;;;;5065102;28;20081;-68
2023/09/08 01:15:51;;;;;;;11.98;4.60;;;;;;;;;;5060307;28;20044;-70
2023/09/08 01:18:18;;;;;;;7.25;4.20;;;;;;;;;;5062776;28;20048;-68
2023/09/08 01:21:34;;;;;;;10.88;4.50;;;;;;;;;;5058956;28;20052;-69
2023/09/08 01:24:19;;;;;;;8.85;4.25;;;;;;;;;;5007983;28;20053;-68
2023/09/08 01:26:49;;;;;;;9.18;4.70;;;;;;;;;;5054927;28;20055;-69
2023/09/08 01:29:17;;;;;;;9.18;4.88;;;;;;;;;;5044739;28;20053;-68
2023/09/08 01:31:44;;;;;;;16.98;4.68;;;;;;;;;;5053969;28;20056;-68
2023/09/08 01:34:13;;;;;;;7.25;4.20;;;;;;;;;;5044507;28;20123;-69
2023/09/08 01:36:39;;;;;;;;;;;;;;;;;;5032715;28;20060;-70
2023/09/08 01:39:06;;;;;;;8.93;4.45;;;;;;;;;;5044933;28;19920;-70
2023/09/08 01:41:33;;;;;;;12.05;5.00;;;;;;;;;;5044200;28;20151;-70
2023/09/08 01:44:07;;;;;;;12.80;4.70;;;;;;;;;;5087293;28;20048;-69
2023/09/08 01:46:34;;;;;;;17.00;4.55;;;;;;;;;;5057896;28;20126;-69
2023/09/08 01:49:01;;;;;;;9.10;4.72;;;;;;;;;;5067176;28;20063;-70
2023/09/08 01:51:28;;;;;;;11.60;4.72;;;;;;;;;;5069980;28;20064;-69
2023/09/08 01:53:55;;;;;;;9.90;5.03;;;;;;;;;;5063312;28;20124;-69
2023/09/08 01:56:22;;;;;;;10.27;4.57;;;;;;;;;;5058790;28;20056;-69
2023/09/08 01:58:49;;;;;;;9.98;4.60;;;;;;;;;;5079560;28;20120;-69
2023/09/08 02:01:18;;;;;;;11.70;4.80;;;;;;;;;;5070747;28;20095;-69
2023/09/08 02:03:44;;;;;;;10.63;4.47;;;;;;;;;;5005746;28;20124;-68
2023/09/08 02:06:12;;;;;;;10.38;4.93;;;;;;;;;;5033286;28;20044;-72
2023/09/08 02:08:38;;;;;;;9.60;4.53;;;;;;;;;;5050235;28;20049;-68
2023/09/08 02:11:05;;;;;;;11.02;4.50;;;;;;;;;;5064243;28;20044;-68
2023/09/08 02:13:32;;;;;;;8.75;4.68;;;;;;;;;;5068128;28;20151;-70
2023/09/08 02:15:59;;;;;;;10.65;4.95;;;;;;;;;;5058200;28;20044;-69
2023/09/08 02:18:28;;;;;;;9.20;4.43;;;;;;;;;;5037580;28;20040;-71
2023/09/08 02:20:55;;;;;;;8.75;4.80;;;;;;;;;;5060705;28;20094;-69
2023/09/08 02:23:22;;;;;;;10.20;4.53;;;;;;;;;;5081446;28;20056;-69
2023/09/08 02:25:48;;;;;;;14.38;4.43;;;;;;;;;;5078149;28;20063;-68
2023/09/08 02:28:15;;;;;;;8.95;4.82;;;;;;;;;;5076567;28;20049;-69
2023/09/08 02:30:42;;;;;;;9.40;4.70;;;;;;;;;;5063632;28;20075;-70
2023/09/08 02:33:09;;;;;;;11.77;4.90;;;;;;;;;;5063697;28;20056;-69
2023/09/08 02:35:39;;;;;;;8.73;4.60;;;;;;;;;;5057168;28;20055;-69
2023/09/08 02:38:06;;;;;;;9.65;4.95;;;;;;;;;;5060266;28;20056;-69
2023/09/08 02:40:34;;;;;;;11.13;4.97;;;;;;;;;;5059571;28;20062;-69
2023/09/08 02:43:01;;;;;;;10.70;5.03;;;;;;;;;;5043648;28;20055;-69
2023/09/08 02:45:27;;;;;;;8.80;4.65;;;;;;;;;;5056493;28;20141;-69
2023/09/08 02:47:54;;;;;;;13.18;5.00;;;;;;;;;;5060261;28;20056;-69
2023/09/08 02:50:21;;;;;;;10.45;4.80;;;;;;;;;;5054754;28;20052;-68
2023/09/08 02:52:50;;;;;;;10.52;4.88;;;;;;;;;;5066329;28;20048;-69
2023/09/08 02:55:17;;;;;;;9.23;4.75;;;;;;;;;;5061870;28;20055;-68
2023/09/08 02:57:44;;;;;;;10.02;5.05;;;;;;;;;;5063684;28;20139;-68
2023/09/08 03:00:11;;;;;;;10.55;5.20;;;;;;;;;;5060344;28;20060;-69
2023/09/08 03:02:38;;;;;;;11.60;5.60;;;;;;;;;;5058298;28;20052;-69
2023/09/08 03:05:05;;;;;;;13.00;5.28;;;;;;;;;;5075615;28;20048;-70
2023/09/08 03:07:35;;;;;;;18.23;4.90;;;;;;;;;;5079580;28;20111;-69
2023/09/08 03:10:04;;;;;;;11.13;4.93;;;;;;;;;;5082991;28;20298;-68
2023/09/08 03:12:32;;;;;;;14.18;4.88;;;;;;;;;;5069799;28;20052;-69
2023/09/08 03:14:58;;;;;;;10.43;5.32;;;;;;;;;;5076152;28;20106;-69
2023/09/08 03:17:25;;;;;;;9.65;4.85;;;;;;;;;;5080532;28;20056;-70
2023/09/08 03:19:52;;;;;;;8.82;4.80;;;;;;;;;;5066044;28;20136;-69
2023/09/08 03:22:19;;;;;;;14.07;5.50;;;;;;;;;;5061738;28;20071;-70
2023/09/08 03:24:46;;;;;;;10.95;5.22;;;;;;;;;;5076783;28;20062;-68
2023/09/08 03:27:14;;;;;;;9.18;4.85;;;;;;;;;;5063547;28;20080;-68
2023/09/08 03:29:41;;;;;;;12.82;5.47;;;;;;;;;;5064599;28;20075;-69
2023/09/08 03:32:07;;;;;;;11.15;5.35;;;;;;;;;;5082802;28;20052;-68
2023/09/08 03:34:39;;;;;;;11.35;4.90;;;;;;;;;;5057674;28;20070;-69
2023/09/08 03:37:06;;;;;;;13.55;5.13;;;;;;;;;;5062578;28;20047;-69
2023/09/08 03:39:33;;;;;;;11.40;6.03;;;;;;;;;;5067905;28;20036;-68
2023/09/08 03:42:00;;;;;;;13.13;5.78;;;;;;;;;;5062576;28;20109;-68
2023/09/08 03:44:28;;;;;;;13.35;5.57;;;;;;;;;;5070312;28;20052;-70
2023/09/08 03:46:54;;;;;;;9.02;4.97;;;;;;;;;;5079910;28;20113;-69
2023/09/08 03:49:21;;;;;;;10.20;5.63;;;;;;;;;;5065922;28;20147;-69
2023/09/08 03:51:48;;;;;;;15.82;5.95;;;;;;;;;;5067188;28;20067;-70
2023/09/08 03:54:15;;;;;;;10.18;5.53;;;;;;;;;;5053418;28;20052;-69
2023/09/08 03:56:42;;;;;;;11.07;5.32;;;;;;;;;;5090915;28;20058;-69
2023/09/08 03:59:08;;;;;;;12.32;5.78;;;;;;;;;;5083375;28;20067;-68
2023/09/08 04:01:36;;;;;;;12.38;5.45;;;;;;;;;;5084034;28;20051;-69
2023/09/08 04:04:04;;;;;;;10.70;5.40;;;;;;;;;;5062107;28;20131;-67
2023/09/08 04:06:31;;;;;;;13.30;5.55;;;;;;;;;;5059650;28;20236;-68
2023/09/08 04:08:58;;;;;;;10.82;5.30;;;;;;;;;;5075235;28;20112;-68
2023/09/08 04:11:25;;;;;;;9.10;4.88;;;;;;;;;;5070766;28;20044;-68
2023/09/08 04:13:52;;;;;;;10.98;4.93;;;;;;;;;;5044252;28;20051;-68
2023/09/08 04:16:19;;;;;;;10.30;5.68;;;;;;;;;;5044710;28;20044;-68
2023/09/08 04:18:47;;;;;;;10.95;5.57;;;;;;;;;;5088687;28;20083;-67
2023/09/08 04:21:14;;;;;;;12.20;5.55;;;;;;;;;;5063734;28;20055;-69
2023/09/08 04:23:41;;;;;;;10.50;5.53;;;;;;;;;;5074693;28;20056;-68
2023/09/08 04:26:08;;;;;;;12.57;5.72;;;;;;;;;;5060573;28;20040;-69
2023/09/08 04:28:35;;;;;;;10.93;5.70;;;;;;;;;;5065801;28;20048;-68
2023/09/08 04:31:01;;;;;;;10.50;5.53;;;;;;;;;;5065741;28;20052;-68
2023/09/08 04:33:29;;;;;;;10.75;5.72;;;;;;;;;;5066176;28;20190;-69
2023/09/08 04:35:57;;;;;;;12.07;5.63;;;;;;;;;;5060839;28;20044;-70
2023/09/08 04:38:24;;;;;;;11.05;5.47;;;;;;;;;;5058108;28;20088;-68
2023/09/08 04:40:51;;;;;;;11.52;5.95;;;;;;;;;;5083470;28;20056;-69
2023/09/08 04:43:17;;;;;;;12.95;5.85;;;;;;;;;;5066950;28;20050;-68
2023/09/08 04:45:44;;;;;;;10.82;6.10;;;;;;;;;;5057009;28;20043;-68
2023/09/08 04:48:11;;;;;;;12.88;6.35;;;;;;;;;;5076564;28;20121;-70
2023/09/08 04:50:38;;;;;;;13.73;6.55;;;;;;;;;;5081917;28;20051;-68
2023/09/08 04:53:06;;;;;;;15.50;5.88;;;;;;;;;;5087029;28;20040;-69
2023/09/08 04:55:33;;;;;;;11.95;6.30;;;;;;;;;;5060002;28;20121;-68
2023/09/08 04:58:00;;;;;;;11.48;5.97;;;;;;;;;;5062263;28;20188;-69
2023/09/08 05:00:27;;;;;;;12.77;5.93;;;;;;;;;;5057072;28;20143;-68
2023/09/08 05:02:54;;;;;;;11.15;5.80;;;;;;;;;;5062036;28;20056;-68
2023/09/08 05:05:21;;;;;;;13.05;5.90;;;;;;;;;;5054807;28;20059;-68
2023/09/08 05:07:49;;;;;;;13.45;5.95;;;;;;;;;;5062841;28;20052;-69
2023/09/08 05:10:17;;;;;;;15.45;6.85;;;;;;;;;;5075784;28;20078;-69
2023/09/08 05:12:44;;;;;;;10.95;5.72;;;;;;;;;;5064759;28;20143;-68
2023/09/08 05:15:15;;;;;;;13.90;5.90;;;;;;;;;;5057523;28;20051;-68
2023/09/08 05:17:42;;;;;;;25.42;11.75;;;;;;;;;;5061708;28;20048;-68
2023/09/08 05:20:10;;;;;;;19.90;8.45;;;;;;;;;;5060787;28;20040;-68
2023/09/08 05:22:38;;;;;;;15.13;6.65;;;;;;;;;;5061079;28;20138;-68
2023/09/08 05:25:06;;;;;;;17.75;6.15;;;;;;;;;;5075140;28;20059;-69
2023/09/08 05:27:34;;;;;;;12.87;6.03;;;;;;;;;;5067712;28;20048;-69
2023/09/08 05:30:01;;;;;;;14.98;6.20;;;;;;;;;;5064123;28;20290;-69
2023/09/08 05:32:27;;;;;;;11.65;6.07;;;;;;;;;;5078859;28;20149;-69
2023/09/08 05:34:54;;;;;;;10.88;5.85;;;;;;;;;;5058164;28;20132;-68
2023/09/08 05:37:21;;;;;;;13.00;6.38;;;;;;;;;;5063012;28;20040;-68
2023/09/08 05:39:48;;;;;;;11.65;6.00;;;;;;;;;;5060130;28;20044;-68
2023/09/08 05:42:15;;;;;;;16.98;6.30;;;;;;;;;;5060079;28;20052;-69
2023/09/08 05:44:46;;;;;;;15.50;6.53;;;;;;;;;;5075300;28;20058;-69
2023/09/08 05:47:12;;;;;;;35.70;15.40;;;;;;;;;;5080815;28;20112;-68
2023/09/08 05:49:39;;;;;;;22.02;10.40;;;;;;;;;;5064025;28;20159;-68
2023/09/08 05:52:07;;;;;;;22.33;7.80;;;;;;;;;;5062540;28;20139;-67
2023/09/08 05:54:34;;;;;;;15.83;6.77;;;;;;;;;;5032819;28;20057;-69
2023/09/08 05:57:01;;;;;;;15.07;6.63;;;;;;;;;;5046866;28;20343;-68
2023/09/08 05:59:28;;;;;;;13.27;6.55;;;;;;;;;;5063507;28;20048;-69
2023/09/08 06:01:59;;;;;;;16.48;6.28;;;;;;;;;;5062830;28;20052;-70
2023/09/08 06:04:25;;;;;;;19.05;9.32;;;;;;;;;;5053939;28;20052;-69
2023/09/08 06:06:52;;;;;;;14.32;8.57;;;;;;;;;;5082192;28;20071;-68
2023/09/08 06:09:19;;;;;;;17.10;6.70;;;;;;;;;;5068610;28;20107;-69
2023/09/08 06:11:47;;;;;;;14.85;8.30;;;;;;;;;;5081518;28;20067;-69
2023/09/08 06:14:16;;;;;;;16.08;6.80;;;;;;;;;;5053880;28;20044;-70
2023/09/08 06:16:43;;;;;;;10.73;5.90;;;;;;;;;;5077630;28;20053;-68
2023/09/08 06:19:13;;;;;;;15.55;6.18;;;;;;;;;;5082097;28;20117;-69
2023/09/08 06:21:40;;;;;;;15.85;6.05;;;;;;;;;;5079557;28;20095;-70
2023/09/08 06:24:08;;;;;;;15.40;6.35;;;;;;;;;;5074829;28;20083;-68
2023/09/08 06:26:35;;;;;;;16.83;6.83;;;;;;;;;;5083165;28;20131;-70
2023/09/08 06:29:02;;;;;;;22.90;10.07;;;;;;;;;;5100993;28;20150;-68
2023/09/08 06:31:28;;;;;;;19.42;8.50;;;;;;;;;;5082605;28;20059;-69
2023/09/08 06:33:55;;;;;;;17.52;7.65;;;;;;;;;;5063262;28;20059;-70
2023/09/08 06:36:24;;;;;;;14.73;6.90;;;;;;;;;;5056677;28;20062;-72
2023/09/08 06:38:53;;;;;;;13.77;5.97;;;;;;;;;;5063605;28;20105;-70
2023/09/08 06:41:20;;;;;;;14.43;6.60;;;;;;;;;;5063314;28;20079;-71
2023/09/08 06:43:47;;;;;;;11.57;6.15;;;;;;;;;;5044141;28;20047;-69
2023/09/08 06:46:14;;;;;;;14.38;6.20;;;;;;;;;;5067276;28;20053;-70
2023/09/08 06:48:41;;;;;;;11.07;6.15;;;;;;;;;;5058728;28;20055;-68
2023/09/08 06:51:08;;;;;;;11.80;6.30;;;;;;;;;;5063205;28;20139;-70
2023/09/08 06:53:37;;;;;;;23.92;6.70;;;;;;;;;;5060863;28;20055;-70
2023/09/08 06:56:07;;;;;;;15.15;6.25;;;;;;;;;;5037898;28;20139;-69
2023/09/08 06:58:34;;;;;;;12.45;6.18;;;;;;;;;;5072694;28;20048;-69
2023/09/08 07:01:03;;;;;;;13.85;6.93;;;;;;;;;;5061629;28;20131;-69
2023/09/08 07:03:36;;;;;;;13.18;6.65;;;;;;;;;;5061943;28;20540;-71
2023/09/08 07:06:10;;;;;;;13.65;6.85;;;;;;;;;;5055327;28;20078;-70
2023/09/08 07:08:38;;;;;;;14.50;6.45;;;;;;;;;;5076937;28;20902;-71
2023/09/08 07:11:05;;;;;;;;;;;;;;;;;;5079802;28;20080;-70
2023/09/08 07:13:32;;;;;;;25.60;13.40;;;;;;;;;;5068774;28;19924;-71
2023/09/08 07:16:05;;;;;;;18.77;8.02;;;;;;;;;;5048663;28;20048;-70
2023/09/08 07:18:34;;;;;;;16.70;7.90;;;;;;;;;;5061293;28;20044;-69
2023/09/08 07:21:01;;;;;;;15.80;8.07;;;;;;;;;;5062609;28;20063;-69
2023/09/08 07:23:28;;;;;;;13.13;6.70;;;;;;;;;;5065970;28;20052;-71
2023/09/08 07:25:57;;;;;;;14.30;7.70;;;;;;;;;;5058063;28;20147;-71
2023/09/08 07:28:23;;;;;;;;;;;;;;;;;;5069859;28;20056;-72
2023/09/08 07:30:50;;;;;;;18.55;7.55;;;;;;;;;;5083971;28;19931;-71
2023/09/08 07:33:20;;;;;;;26.10;7.68;;;;;;;;;;5076499;28;20083;-71
2023/09/08 07:35:47;;;;;;;14.15;7.22;;;;;;;;;;5052079;28;20055;-70
2023/09/08 07:38:13;;;;;;;14.00;7.45;;;;;;;;;;5059098;28;20058;-69
2023/09/08 07:40:42;;;;;;;16.35;7.63;;;;;;;;;;5068226;28;20052;-69
2023/09/08 07:43:11;;;;;;;15.77;7.97;;;;;;;;;;5064255;28;20044;-70
2023/09/08 07:45:40;;;;;;;;;;;;;;;;;;5024413;28;20106;-70
2023/09/08 07:48:07;;;;;;;15.45;8.27;;;;;;;;;;5066781;28;20046;-69
2023/09/08 07:50:34;;;;;;;23.43;10.60;;;;;;;;;;5077581;28;20055;-70
2023/09/08 07:53:01;;;;;;;18.70;9.07;;;;;;;;;;5079544;28;20295;-70
2023/09/08 07:55:28;;;;;;;31.10;17.05;;;;;;;;;;5061527;28;20079;-69
2023/09/08 07:57:57;;;;;;;18.65;8.75;;;;;;;;;;5069283;28;20063;-71
2023/09/08 08:00:26;;;;;;;17.38;7.63;;;;;;;;;;5073486;28;20063;-69
2023/09/08 08:02:55;;;;;;;17.02;8.88;;;;;;;;;;5081586;28;20062;-69
2023/09/08 08:05:23;;;;;;;17.90;8.15;;;;;;;;;;5068317;28;20163;-70
2023/09/08 08:07:52;;;;;;;16.60;7.05;;;;;;;;;;5067714;28;20059;-71
2023/09/08 08:10:20;;;;;;;21.20;9.00;;;;;;;;;;5078635;28;20109;-71
2023/09/08 08:12:47;;;;;;;15.23;8.10;;;;;;;;;;5058812;28;20197;-71
2023/09/08 08:15:14;;;;;;;14.98;8.07;;;;;;;;;;5055388;28;20052;-72
2023/09/08 08:17:43;;;;;;;24.55;8.25;;;;;;;;;;5084009;28;20270;-71
2023/09/08 08:20:17;;;;;;;17.35;8.85;;;;;;;;;;5060545;28;20123;-70
2023/09/08 08:22:45;;;;;;;17.83;8.23;;;;;;;;;;5067423;28;20039;-70
2023/09/08 08:25:12;;;;;;;14.75;7.57;;;;;;;;;;5048868;28;20137;-69
2023/09/08 08:27:39;;;;;;;22.35;8.77;;;;;;;;;;5067299;28;20139;-71
2023/09/08 08:30:08;;;;;;;16.83;8.75;;;;;;;;;;5065738;28;20075;-70
2023/09/08 08:32:37;;;;;;;16.60;8.30;;;;;;;;;;5081781;28;20075;-71
2023/09/08 08:35:07;;;;;;;18.27;8.57;;;;;;;;;;5079074;28;20040;-71
2023/09/08 08:37:35;;;;;;;16.85;9.20;;;;;;;;;;5080580;28;20079;-71
2023/09/08 08:40:06;;;;;;;;;;;;;;;;;;5082158;28;20087;-71
2023/09/08 08:42:34;;;;;;;17.67;8.43;;;;;;;;;;5081929;28;19920;-70
2023/09/08 08:45:03;;;;;;;18.77;10.85;;;;;;;;;;5058899;28;20060;-70
2023/09/08 08:47:30;;;;;;;19.42;8.65;;;;;;;;;;5065255;28;20050;-69
2023/09/08 08:49:59;;;;;;;16.80;8.13;;;;;;;;;;5059493;28;20040;-71
2023/09/08 08:52:28;;;;;;;17.65;8.75;;;;;;;;;;5036643;28;20113;-69
2023/09/08 08:54:58;;;;;;;22.23;8.18;;;;;;;;;;5058503;28;20056;-69
2023/09/08 08:57:27;;;;;;;13.48;7.30;;;;;;;;;;5065731;28;20051;-71
2023/09/08 08:59:54;;;;;;;20.40;7.90;;;;;;;;;;5080733;28;20161;-70
2023/09/08 09:02:23;;;;;;;17.98;8.10;;;;;;;;;;5077481;28;20199;-69
2023/09/08 09:04:50;;;;;;;18.95;8.43;;;;;;;;;;5066769;28;20044;-70
2023/09/08 09:07:19;;;;;;;12.90;7.10;;;;;;;;;;5064494;28;20051;-70
2023/09/08 09:09:48;;;;;;;13.85;7.22;;;;;;;;;;5063801;28;20127;-70
2023/09/08 09:12:15;;;;;;;;;;;;;;;;;;5056975;28;20040;-70
2023/09/08 09:14:47;;;;;;;17.35;7.45;;;;;;;;;;5039596;28;19924;-69
2023/09/08 09:17:16;;;;;;;18.17;8.05;;;;;;;;;;5064689;28;20048;-70
2023/09/08 09:19:43;;;;;;;15.02;7.82;;;;;;;;;;5063163;28;20051;-70
2023/09/08 09:22:10;;;;;;;16.52;7.47;;;;;;;;;;5058737;28;20084;-70
2023/09/08 09:24:40;;;;;;;18.95;7.45;;;;;;;;;;5047090;28;20105;-70
2023/09/08 09:27:09;;;;;;;15.05;8.00;;;;;;;;;;5064660;28;20051;-71
2023/09/08 09:29:46;;;;;;;19.85;7.60;;;;;;;;;;5063730;28;20115;-71
2023/09/08 09:32:13;;;;;;;18.05;7.47;;;;;;;;;;5079753;28;20055;-71
2023/09/08 09:34:49;;;;;;;18.15;7.88;;;;;;;;;;5076015;28;20131;-71
2023/09/08 09:37:16;;;;;;;20.17;7.75;;;;;;;;;;5078650;28;20059;-70
2023/09/08 09:39:43;;;;;;;14.57;7.55;;;;;;;;;;5078961;28;20039;-71
2023/09/08 09:42:13;;;;;;;16.05;7.07;;;;;;;;;;5082340;28;20050;-71
2023/09/08 09:44:44;;;;;;;19.02;7.53;;;;;;;;;;5035334;28;20143;-71
2023/09/08 09:47:12;;;;;;;15.93;7.53;;;;;;;;;;5052148;28;20143;-71
2023/09/08 09:49:43;;;;;;;16.02;7.00;;;;;;;;;;5063221;28;20097;-71
2023/09/08 09:52:13;;;;;;;14.15;6.97;;;;;;;;;;5062524;28;20056;-71
2023/09/08 09:54:41;;;;;;;13.30;6.97;;;;;;;;;;5053704;28;20055;-71
2023/09/08 09:57:10;;;;;;;12.95;6.97;;;;;;;;;;5067077;28;20052;-71
2023/09/08 09:59:39;;;;;;;13.95;6.85;;;;;;;;;;5072499;28;20059;-71
2023/09/08 10:02:13;;;;;;;14.63;7.30;;;;;;;;;;5062371;28;20053;-71
2023/09/08 10:04:41;;;;;;;13.63;6.95;;;;;;;;;;5045761;28;20122;-71
2023/09/08 10:07:10;;;;;;;12.18;6.18;;;;;;;;;;5057004;28;20051;-71
2023/09/08 10:09:38;;;;;;;13.07;6.32;;;;;;;;;;5058768;28;20051;-71
2023/09/08 10:12:06;;;;;;;14.73;6.35;;;;;;;;;;5059325;28;20044;-71
2023/09/08 10:14:41;;;;;;;10.82;5.70;;;;;;;;;;5036211;28;20123;-71
2023/09/08 10:17:13;;;;;;;10.52;6.38;;;;;;;;;;5061103;28;20118;-70
2023/09/08 10:19:41;;;;;;;11.43;5.80;;;;;;;;;;5059077;28;20040;-70
2023/09/08 10:22:13;;;;;;;11.43;5.68;;;;;;;;;;5057450;28;20049;-70
2023/09/08 10:24:42;;;;;;;9.93;5.20;;;;;;;;;;5032012;28;20048;-71
2023/09/08 10:27:10;;;;;;;11.07;5.60;;;;;;;;;;5057471;28;20121;-70
2023/09/08 10:29:39;;;;;;;10.38;4.68;;;;;;;;;;5060124;28;20048;-70
2023/09/08 10:32:10;;;;;;;8.98;4.35;;;;;;;;;;5075644;28;20086;-71
2023/09/08 10:34:41;;;;;;;10.05;5.15;;;;;;;;;;5054763;28;20061;-71
2023/09/08 10:37:19;;;;;;;;;;;;;;;;;;5075792;28;20147;-71
2023/09/08 10:39:46;;;;;;;12.13;4.78;;;;;;;;;;5057510;28;19920;-71
2023/09/08 10:42:25;;;;;;;9.18;4.55;;;;;;;;;;5057727;28;20072;-72
2023/09/08 10:45:17;;;;;;;11.02;4.57;;;;;;;;;;5041599;28;20074;-72
2023/09/08 10:47:57;;;;;;;8.52;4.38;;;;;;;;;;5054468;28;20052;-72
2023/09/08 10:50:34;;;;;;;9.40;4.40;;;;;;;;;;5056410;28;20048;-72
2023/09/08 10:53:27;;;;;;;11.60;4.95;;;;;;;;;;5058096;28;20059;-72
2023/09/08 10:55:54;;;;;;;8.80;4.57;;;;;;;;;;5029910;28;20087;-72
2023/09/08 10:58:29;;;;;;;9.27;4.03;;;;;;;;;;5051601;28;20052;-73
2023/09/08 11:01:01;;;;;;;12.60;4.47;;;;;;;;;;5059722;28;20056;-72
2023/09/08 11:03:43;;;;;;;11.73;5.10;;;;;;;;;;5064089;28;20059;-71
2023/09/08 11:06:13;;;;;;;7.40;4.47;;;;;;;;;;4998785;28;20072;-72
2023/09/08 11:08:43;;;;;;;9.65;5.40;;;;;;;;;;5061960;28;20052;-70
2023/09/08 11:11:12;;;;;;;9.80;4.78;;;;;;;;;;5060846;28;20052;-72
2023/09/08 11:13:40;;;;;;;9.45;4.40;;;;;;;;;;5061076;28;20052;-73
2023/09/08 11:16:09;;;;;;;10.18;5.03;;;;;;;;;;5041033;28;20163;-71
2023/09/08 11:18:39;;;;;;;9.98;4.75;;;;;;;;;;5062132;28;20045;-71
2023/09/08 11:21:09;;;;;;;9.43;4.72;;;;;;;;;;5064092;28;20052;-72
2023/09/08 11:23:36;;;;;;;8.43;4.70;;;;;;;;;;5060499;28;20048;-71
2023/09/08 11:26:06;;;;;;;12.20;4.93;;;;;;;;;;5057367;28;20066;-71
2023/09/08 11:28:34;;;;;;;11.05;4.95;;;;;;;;;;5060432;28;20088;-71
2023/09/08 11:31:01;;;;;;;13.13;4.43;;;;;;;;;;5074108;28;20075;-70
2023/09/08 11:33:38;;;;;;;13.40;4.57;;;;;;;;;;5080666;28;20047;-71
2023/09/08 11:36:14;;;;;;;10.40;4.45;;;;;;;;;;4989184;28;20080;-71
2023/09/08 11:38:43;;;;;;;10.48;4.18;;;;;;;;;;5057605;28;20072;-72
2023/09/08 11:41:11;;;;;;;10.13;4.85;;;;;;;;;;5062544;28;20105;-72
2023/09/08 11:43:39;;;;;;;;;;;;;;;;;;5060909;28;20044;-72
2023/09/08 11:46:07;;;;;;;9.05;4.28;;;;;;;;;;5046454;28;19920;-72
2023/09/08 11:48:35;;;;;;;;;;;;;;;;;;5073722;28;21690;-71
2023/09/08 11:51:02;;;;;;;12.38;3.97;;;;;;;;;;5078085;28;19924;-72
2023/09/08 11:53:34;;;;;;;9.40;4.82;;;;;;;;;;5075190;28;20052;-72
2023/09/08 11:56:03;;;;;;;7.90;4.35;;;;;;;;;;4946690;28;20046;-74
2023/09/08 11:58:37;;;;;;;7.80;4.10;;;;;;;;;;5029551;28;20052;-73
2023/09/08 12:01:05;;;;;;;9.68;4.10;;;;;;;;;;5064724;28;20044;-71
2023/09/08 12:03:56;;;;;;;11.95;4.45;;;;;;;;;;5059198;28;20048;-71
2023/09/08 12:06:26;;;;;;;10.88;4.03;;;;;;;;;;4997285;28;20040;-72
2023/09/08 12:08:53;;;;;;;7.05;4.22;;;;;;;;;;5073711;28;20076;-71
2023/09/08 12:11:21;;;;;;;8.68;3.95;;;;;;;;;;5062480;28;20158;-72
2023/09/08 12:13:48;;;;;;;7.78;3.65;;;;;;;;;;5059805;28;20048;-72
2023/09/08 12:16:22;;;;;;;6.90;3.70;;;;;;;;;;4997255;28;20234;-72
2023/09/08 12:18:50;;;;;;;9.50;3.85;;;;;;;;;;5045482;28;20052;-72
2023/09/08 12:21:19;;;;;;;6.38;3.58;;;;;;;;;;5047285;28;20052;-72
2023/09/08 12:23:53;;;;;;;6.75;3.80;;;;;;;;;;5044907;28;20083;-72
2023/09/08 12:26:23;;;;;;;7.30;3.90;;;;;;;;;;5022994;28;20056;-72
2023/09/08 12:28:51;;;;;;;6.28;3.63;;;;;;;;;;5065149;28;20195;-73
2023/09/08 12:31:19;;;;;;;8.35;3.78;;;;;;;;;;5079295;28;20047;-72
2023/09/08 12:33:47;;;;;;;6.88;3.50;;;;;;;;;;5084553;28;20140;-72
2023/09/08 12:36:16;;;;;;;;;;;;;;;;;;5000499;28;20081;-72
2023/09/08 12:38:48;;;;;;;9.02;3.58;;;;;;;;;;5076026;28;19932;-72
2023/09/08 12:41:21;;;;;;;8.13;4.10;;;;;;;;;;5081172;28;20058;-72
2023/09/08 12:43:48;;;;;;;13.05;7.85;;;;;;;;;;5081789;28;20056;-72
2023/09/08 12:46:19;;;;;;;10.65;4.60;;;;;;;;;;5024769;28;20052;-72
2023/09/08 12:48:46;;;;;;;6.55;3.80;;;;;;;;;;5079880;28;20048;-72
2023/09/08 12:51:17;;;;;;;7.60;4.10;;;;;;;;;;5064714;28;20059;-72
2023/09/08 12:53:44;;;;;;;6.93;3.55;;;;;;;;;;5064271;28;20043;-72
2023/09/08 12:56:11;;;;;;;8.82;4.40;;;;;;;;;;5059997;28;20048;-71
2023/09/08 12:58:38;;;;;;;10.10;4.10;;;;;;;;;;5079805;28;20139;-72
2023/09/08 13:01:06;;;;;;;9.98;3.75;;;;;;;;;;5084984;28;20052;-71
2023/09/08 13:03:35;;;;;;;10.07;4.38;;;;;;;;;;5084849;28;20134;-72
2023/09/08 13:06:06;;;;;;;9.82;4.45;;;;;;;;;;5078502;28;20044;-71
2023/09/08 13:08:34;;;;;;;8.15;4.70;;;;;;;;;;5080104;28;21007;-72
2023/09/08 13:11:03;;;;;;;11.98;4.97;;;;;;;;;;5082173;28;20132;-71
2023/09/08 13:13:31;;;;;;;7.78;3.80;;;;;;;;;;5067630;28;20055;-71
2023/09/08 13:15:58;;;;;;;8.60;4.43;;;;;;;;;;5052701;28;20058;-72
2023/09/08 13:18:26;;;;;;;9.65;4.93;;;;;;;;;;5059133;28;20102;-71
2023/09/08 13:20:55;;;;;;;7.82;4.10;;;;;;;;;;5061316;28;20049;-72
2023/09/08 13:23:26;;;;;;;11.18;5.00;;;;;;;;;;5062468;28;20075;-72
2023/09/08 13:25:54;;;;;;;11.93;4.80;;;;;;;;;;5054734;28;20173;-72
2023/09/08 13:28:21;;;;;;;9.15;4.40;;;;;;;;;;5055174;28;20058;-72
2023/09/08 13:30:48;;;;;;;11.90;4.37;;;;;;;;;;5057267;28;20137;-72
2023/09/08 13:33:15;;;;;;;10.50;4.20;;;;;;;;;;5041346;28;20331;-72
2023/09/08 13:35:42;;;;;;;8.77;4.55;;;;;;;;;;5046821;28;20123;-71
2023/09/08 13:38:11;;;;;;;8.73;4.47;;;;;;;;;;5056896;28;20110;-70
2023/09/08 13:40:38;;;;;;;8.55;4.90;;;;;;;;;;5060909;28;20166;-71
2023/09/08 13:43:06;;;;;;;8.83;4.73;;;;;;;;;;5061022;28;20160;-71
2023/09/08 13:45:33;;;;;;;8.27;4.80;;;;;;;;;;5053008;28;20105;-71
2023/09/08 13:48:00;;;;;;;11.33;4.70;;;;;;;;;;5059134;28;20059;-70
2023/09/08 13:50:29;;;;;;;16.53;4.23;;;;;;;;;;5052766;28;20059;-71
2023/09/08 13:52:56;;;;;;;8.77;4.40;;;;;;;;;;5059051;28;20307;-73
2023/09/08 13:55:23;;;;;;;11.10;4.55;;;;;;;;;;5052955;28;20099;-71
2023/09/08 13:57:50;;;;;;;9.05;3.80;;;;;;;;;;5065359;28;20052;-71
2023/09/08 14:00:19;;;;;;;8.50;4.78;;;;;;;;;;5050984;28;20056;-70
2023/09/08 14:02:46;;;;;;;11.35;4.20;;;;;;;;;;5058502;28;20082;-71
2023/09/08 14:05:13;;;;;;;9.57;4.23;;;;;;;;;;5047393;28;20052;-71
2023/09/08 14:07:40;;;;;;;7.38;4.18;;;;;;;;;;5060518;28;20048;-71
2023/09/08 14:10:09;;;;;;;9.53;4.43;;;;;;;;;;5054495;28;20059;-70
2023/09/08 14:12:36;;;;;;;10.32;4.43;;;;;;;;;;5055901;28;20291;-71
2023/09/08 14:15:03;;;;;;;11.00;4.03;;;;;;;;;;5032585;28;20068;-71
2023/09/08 14:17:32;;;;;;;8.27;4.15;;;;;;;;;;5048292;28;20076;-71
2023/09/08 14:19:59;;;;;;;9.15;5.60;;;;;;;;;;5059865;28;20105;-71
2023/09/08 14:22:26;;;;;;;18.88;11.98;;;;;;;;;;5051984;28;20044;-70
2023/09/08 14:24:53;;;;;;;11.00;4.28;;;;;;;;;;5055136;28;20049;-71
2023/09/08 14:27:20;;;;;;;9.02;4.05;;;;;;;;;;5051652;28;20053;-70
2023/09/08 14:29:47;;;;;;;8.10;3.80;;;;;;;;;;5040511;28;20052;-70
2023/09/08 14:32:14;;;;;;;8.02;3.90;;;;;;;;;;5053619;28;20052;-71
2023/09/08 14:34:42;;;;;;;8.80;3.90;;;;;;;;;;5059589;28;20063;-71
2023/09/08 14:37:09;;;;;;;7.13;3.92;;;;;;;;;;5048724;28;20317;-71
2023/09/08 14:39:36;;;;;;;9.23;4.13;;;;;;;;;;5059953;28;20037;-71
2023/09/08 14:42:04;;;;;;;10.17;3.63;;;;;;;;;;5063387;28;20238;-71
2023/09/08 14:44:31;;;;;;;14.75;4.35;;;;;;;;;;5055760;28;20861;-71